Coulee, North Dakota
Current Conditions -  °F | °C
As of 8:55 PM on Tuesday 21 Oct 2014 (Local Time) from K08D Reporting Station
Clear Clear  
Wind Chill: 13°   Ceiling: Unl
Heat Index: 13°   Visibility: 10mi
Dew Point:   Wind: 3mph
Humidity: 72%   Direction: 140°SE
Pressure: 29.6"   Gusts: NA
Location:  48.4598°N, 101.907°W
Report Text: K08D 220155Z AUTO 14003KT 10SM CLR 13/08 A2960 RMK AO2
Loading
Personal Weather Stations






























Interactive Weather Map
Tropical Storm Tracking
New forecast layout! Learn more

10-Day Weather Forecast

Advertisements
Track Severe Weather on mobile